Latest Weather Observations for Yamba

IDN60801

Issued at 12:33 pm EDT Thursday 20 January 2022 (issued every 10 minutes, with the page automatically refreshed every 10 minutes)

About weather observations | Map of weather stations | Latest weather observations for NSW | Other Formats
Station Details ID: 058012 Name: YAMBA PILOT STATION Lat: -29.43 Lon: 153.36 Height: 27.4 m
Data from the previous 72 hours. | See also: Recent months at Yamba
Date/Time
EDT
Temp
°C
App
Temp
°C
Dew
Point
°C
Rel
Hum
%
Delta-T
°C
Wind Press
QNH
hPa
Press
MSL
hPa
Rain since
9am
mm
Dir  Spd
km/h
Gust
km/h
Spd
kts
Gust
kts
20/12:30pm 21.8 17.3 21.0 95 0.5 SSE 46 67 25 36 1019.1 1018.9 5.0
20/12:00pm 23.2 19.2 20.9 87 1.5 SSE 43 72 23 39 1018.9 1018.7 0.8
20/11:30am 22.7 19.6 21.2 91 1.0 SSE 39 59 21 32 1018.9 1018.7 0.8
20/11:00am 22.9 19.1 21.4 91 1.0 SSE 43 63 23 34 1018.4 1018.2 0.8
20/10:30am 22.8 18.7 21.1 90 1.1 SSE 44 69 24 37 1018.0 1017.8 0.2
20/10:01am 22.7 20.7 21.2 91 1.0 S 33 52 18 28 1017.8 1017.6 0.2
20/10:00am 22.6 20.2 21.1 91 1.0 S 35 52 19 28 1017.8 1017.6 0.2
20/09:30am 22.5 18.6 21.1 92 0.9 SSE 43 67 23 36 1017.6 1017.4 0.0
20/09:00am 22.6 20.0 21.4 93 0.8 SSE 37 59 20 32 1017.1 1016.9 15.0
20/08:30am 22.2 20.5 21.4 95 0.5 S 32 56 17 30 1016.9 1016.7 14.8
20/08:28am 22.2 20.5 21.4 95 0.5 S 32 56 17 30 1016.9 1016.7 14.8
20/08:00am 22.0 21.4 21.2 95 0.5 S 26 39 14 21 1016.9 1016.7 13.4
20/07:30am 22.2 20.7 21.0 93 0.8 S 30 46 16 25 1016.8 1016.6 12.4
20/07:00am 23.0 21.6 21.1 89 1.2 SSE 30 48 16 26 1016.5 1016.3 12.4
20/06:58am 23.1 22.0 21.0 88 1.4 SSE 28 46 15 25 1016.5 1016.3 12.4
20/06:30am 22.5 20.8 20.6 89 1.2 S 30 46 16 25 1016.2 1016.0 12.4
20/06:27am 22.8 21.6 20.9 89 1.2 S 28 46 15 25 1016.2 1016.0 12.4
20/06:00am 22.4 20.5 21.0 92 0.9 SSE 32 44 17 24 1015.9 1015.7 12.4
20/05:48am 22.4 21.2 20.9 91 1.0 SSE 28 46 15 25 1015.8 1015.6 12.4
20/05:30am 22.6 21.0 20.7 89 1.2 S 30 44 16 24 1015.4 1015.2 11.4
20/05:00am 22.7 22.1 21.2 91 1.0 S 26 39 14 21 1015.2 1015.0 11.4
20/04:32am 22.2 19.0 21.0 93 0.8 SSE 39 57 21 31 1015.2 1015.0 11.2
20/04:30am 22.1 19.1 20.7 92 0.9 SSE 37 57 20 31 1015.2 1015.0 11.2
20/04:24am 23.0 22.0 20.5 86 1.6 SSE 26 57 14 31 1015.1 1014.9 10.8
20/04:00am 23.2 22.0 20.9 87 1.5 SSE 28 37 15 20 1015.1 1014.9 10.8
20/03:30am 22.7 22.1 21.2 91 1.0 SSE 26 41 14 22 1015.4 1015.2 10.8
20/03:00am 22.3 21.0 20.6 90 1.1 SSE 28 39 15 21 1015.7 1015.5 10.8
20/02:30am 22.3 22.1 21.3 94 0.7 SSE 24 33 13 18 1016.0 1015.8 10.8
20/02:00am 21.9 20.4 20.9 94 0.7 SSE 30 43 16 23 1016.0 1015.8 10.6
20/01:47am 22.3 20.8 20.9 92 0.9 SSE 30 48 16 26 1016.2 1016.0 10.4
20/01:30am 22.6 22.8 21.4 93 0.8 S 22 32 12 17 1016.3 1016.1 10.2
20/01:01am 22.4 21.3 21.0 92 0.9 SSE 28 46 15 25 1016.5 1016.3 10.0
20/01:00am 22.5 21.8 21.1 92 0.9 S 26 46 14 25 1016.6 1016.4 10.0
20/12:30am 22.9 23.2 21.5 92 0.9 SSE 22 30 12 16 1016.5 1016.3 9.8
20/12:00am 22.9 21.9 21.2 90 1.1 SSE 28 41 15 22 1016.7 1016.5 9.8
 
Date/Time
EDT
Temp
°C
App
Temp
°C
Dew
Point
°C
Rel
Hum
%
Delta-T
°C
Wind Press
QNH
hPa
Press
MSL
hPa
Rain since
9am
mm
Dir  Spd
km/h
Gust
km/h
Spd
kts
Gust
kts
19/11:30pm 22.9 22.4 21.4 91 1.0 SSE 26 33 14 18 1016.6 1016.4 9.6
19/11:00pm 23.3 21.1 21.4 89 1.3 SSE 35 48 19 26 1016.4 1016.2 9.2
19/10:30pm 23.3 22.9 21.7 91 1.1 S 26 39 14 21 1016.0 1015.8 8.8
19/10:00pm 22.9 24.0 21.9 94 0.7 S 19 28 10 15 1015.7 1015.5 8.8
19/09:30pm 22.6 23.4 21.4 93 0.8 S 19 32 10 17 1015.5 1015.3 8.8
19/09:00pm 22.5 21.4 21.1 92 0.9 S 28 43 15 23 1015.2 1015.0 8.8
19/08:30pm 22.1 19.6 20.9 93 0.8 SSE 35 57 19 31 1014.8 1014.6 8.6
19/08:00pm 22.2 20.5 21.4 95 0.5 S 32 52 17 28 1014.3 1014.1 8.4
19/07:36pm 21.9 20.5 21.2 96 0.5 SSE 30 56 16 30 1014.1 1013.9 7.8
19/07:30pm 22.3 21.9 21.6 96 0.5 SSE 26 39 14 21 1014.1 1013.9 7.0
19/07:14pm 22.1 21.1 21.3 95 0.5 S 28 48 15 26 1014.0 1013.8 3.4
19/07:00pm 22.7 22.1 21.2 91 1.0 S 26 44 14 24 1013.7 1013.5 0.4
19/06:39pm 23.3 22.1 20.8 86 1.6 S 28 50 15 27 1013.4 1013.2 0.0
19/06:30pm 23.3 23.1 21.2 88 1.4 S 24 41 13 22 1013.5 1013.3 0.0
19/06:00pm 22.9 23.0 21.2 90 1.1 S 22 33 12 18 1013.1 1012.9 0.0
19/05:30pm 23.9 22.2 20.6 82 2.2 S 30 52 16 28 1013.0 1012.8 0.0
19/05:24pm 24.0 22.4 20.7 82 2.2 S 30 48 16 26 1012.9 1012.7 0.0
19/05:00pm 24.4 23.6 20.9 81 2.3 S 26 43 14 23 1012.8 1012.6 0.0
19/04:30pm 24.6 22.9 21.3 82 2.2 S 32 44 17 24 1012.9 1012.7 0.0
19/04:01pm 25.4 24.1 21.3 78 2.7 S 30 48 16 26 1012.8 1012.6 0.0
19/04:00pm 25.4 23.8 21.5 79 2.6 S 32 48 17 26 1012.8 1012.6 0.0
19/03:55pm 25.4 24.1 21.3 78 2.7 S 30 48 16 26 1012.8 1012.6 0.0
19/03:30pm 25.8 25.8 21.7 78 2.7 SSE 24 39 13 21 1012.9 1012.7 0.0
19/03:00pm 26.3 25.9 21.7 76 3.1 SSE 26 35 14 19 1012.8 1012.6 0.0
19/02:30pm 25.8 25.7 21.5 77 2.9 SSE 24 32 13 17 1012.8 1012.6 0.0
19/02:00pm 26.1 26.4 21.5 76 3.1 SSE 22 32 12 17 1013.0 1012.8 0.0
19/01:30pm 26.0 26.0 21.7 77 2.9 SSE 24 35 13 19 1012.9 1012.7 0.0
19/01:00pm 25.3 24.6 21.8 81 2.3 SSE 28 39 15 21 1013.0 1012.8 0.0
19/12:30pm 25.5 25.1 22.4 83 2.1 SSE 28 39 15 21 1013.3 1013.1 0.0
19/12:00pm 26.6 27.1 22.7 79 2.6 SSE 24 32 13 17 1013.3 1013.1 0.0
19/11:30am 26.7 27.6 23.4 82 2.3 SSE 24 32 13 17 1013.3 1013.1 0.0
19/11:00am 26.3 27.0 23.0 82 2.2 SSE 24 30 13 16 1013.3 1013.1 0.0
19/10:30am 25.5 26.2 23.0 86 1.7 SSE 24 32 13 17 1013.3 1013.1 0.0
19/10:00am 25.7 26.6 22.6 83 2.1 SSE 22 28 12 15 1013.1 1012.9 0.0
19/09:30am 25.8 27.4 22.1 80 2.5 SSE 17 22 9 12 1013.2 1013.0 0.0
19/09:00am 25.5 27.3 21.8 80 2.5 SSE 15 20 8 11 1013.0 1012.8 0.0
19/08:30am 25.6 28.2 21.9 80 2.5 SSE 11 11 6 6 1012.7 1012.5 0.0
19/08:00am 25.0 27.1 21.7 82 2.2 SSE 13 15 7 8 1012.6 1012.4 0.0
19/07:30am 24.0 26.1 21.7 87 1.5 S 13 17 7 9 1012.2 1012.1 0.0
19/07:00am 23.0 26.1 21.5 91 1.0 SSE 7 9 4 5 1011.7 1011.6 0.0
19/06:30am 22.6 25.9 21.4 93 0.8 S 6 7 3 4 1011.6 1011.5 0.0
19/06:00am 22.8 26.1 21.4 92 0.9 NW 6 7 3 4 1010.9 1010.8 0.0
19/05:30am 22.9 26.2 21.5 92 0.9 N 6 7 3 4 1010.4 1010.3 0.0
19/05:00am 23.1 26.4 21.5 91 1.1 NE 6 9 3 5 1010.2 1010.1 0.0
19/04:30am 23.1 26.2 21.5 91 1.1 NE 7 9 4 5 1009.9 1009.8 0.0
19/04:00am 22.9 26.2 21.4 91 1.0 N 6 9 3 5 1009.8 1009.7 0.0
19/03:30am 23.2 26.5 21.5 90 1.1 N 6 11 3 6 1009.8 1009.7 0.0
19/03:00am 23.3 26.1 21.6 90 1.1 NE 9 13 5 7 1009.8 1009.7 0.0
19/02:30am 23.4 26.2 21.5 89 1.3 NNE 9 13 5 7 1010.4 1010.3 0.0
19/02:00am 23.6 26.5 21.7 89 1.3 NE 9 13 5 7 1010.9 1010.8 0.0
19/01:30am 23.5 26.3 21.6 89 1.3 NNE 9 13 5 7 1011.2 1011.1 0.0
19/01:00am 23.6 26.5 21.7 89 1.3 NE 9 13 5 7 1011.2 1011.1 0.0
19/12:30am 23.6 26.1 21.7 89 1.3 ENE 11 13 6 7 1011.4 1011.3 0.0
19/12:00am 23.4 26.2 21.5 89 1.3 NE 9 13 5 7 1011.6 1011.5 0.0
 
Date/Time
EDT
Temp
°C
App
Temp
°C
Dew
Point
°C
Rel
Hum
%
Delta-T
°C
Wind Press
QNH
hPa
Press
MSL
hPa
Rain since
9am
mm
Dir  Spd
km/h
Gust
km/h
Spd
kts
Gust
kts
18/11:30pm 23.4 26.2 21.5 89 1.3 ENE 9 13 5 7 1011.9 1011.8 0.0
18/11:00pm 23.3 27.3 21.4 89 1.3 N 2 6 1 3 1012.2 1012.1 0.0
18/10:30pm 23.4 26.6 21.3 88 1.4 NE 6 7 3 4 1012.3 1012.2 0.0
18/10:00pm 23.6 26.9 21.5 88 1.4 N 6 9 3 5 1011.9 1011.8 0.0
18/09:30pm 23.9 27.3 21.6 87 1.5 N 6 9 3 5 1011.5 1011.4 0.0
18/09:00pm 23.9 26.6 21.4 86 1.7 NNE 9 15 5 8 1011.3 1011.2 0.0
18/08:30pm 24.1 26.9 21.6 86 1.7 NNE 9 15 5 8 1011.2 1011.1 0.0
18/08:00pm 24.3 27.1 21.6 85 1.8 NNE 9 15 5 8 1010.7 1010.6 0.0
18/07:30pm 24.6 26.6 21.5 83 2.1 NE 13 19 7 10 1010.2 1010.1 0.0
18/07:00pm 25.2 27.7 21.7 81 2.3 NE 11 19 6 10 1009.7 1009.6 0.0
18/06:30pm 25.5 28.1 22.0 81 2.3 NE 11 17 6 9 1009.3 1009.2 0.0
18/06:00pm 25.5 27.7 21.8 80 2.5 NE 13 19 7 10 1009.6 1009.5 0.0
18/05:30pm 26.2 28.9 22.1 78 2.7 NE 11 17 6 9 1009.5 1009.4 0.0
18/05:00pm 26.9 29.3 22.3 76 3.1 NE 13 20 7 11 1010.0 1009.9 0.0
18/04:30pm 26.6 28.3 21.6 74 3.3 NE 15 20 8 11 1009.7 1009.6 0.0
18/04:00pm 27.2 29.7 22.4 75 3.2 NE 13 20 7 11 1010.0 1009.9 0.0
18/03:30pm 27.8 29.8 22.3 72 3.7 NE 15 24 8 13 1010.1 1010.0 0.0
18/03:00pm 27.3 29.2 22.0 73 3.6 NE 15 22 8 12 1010.4 1010.3 0.0
18/02:30pm 28.2 30.9 22.9 73 3.6 NE 13 26 7 14 1010.8 1010.7 0.0
18/02:00pm 28.9 31.3 22.9 70 4.1 NE 15 20 8 11 1011.0 1010.9 0.0
18/01:30pm 29.3 32.7 24.0 73 3.7 NNE 13 22 7 12 1011.2 1011.1 0.0
18/01:00pm 29.2 32.3 23.6 72 3.9 NE 13 20 7 11 1011.4 1011.3 0.0
18/12:30pm 28.3 30.8 22.5 71 3.9 NE 13 20 7 11 1011.8 1011.7 0.0
18/12:00pm 28.6 31.5 23.1 72 3.8 NE 13 20 7 11 1012.6 1012.4 0.0
18/11:30am 28.6 31.4 22.3 68 4.3 NNE 11 17 6 9 1013.0 1012.8 0.0
18/11:00am 28.8 32.1 23.9 75 3.4 NE 13 19 7 10 1012.6 1012.4 0.0
18/10:30am 28.6 31.7 23.5 74 3.5 NNE 13 20 7 11 1012.8 1012.6 0.0
18/10:00am 27.5 31.2 23.3 78 2.9 NNE 9 15 5 8 1012.7 1012.5 0.0
18/09:30am 26.5 30.6 23.2 82 2.2 N 7 11 4 6 1012.5 1012.3 0.0
18/09:00am 26.1 30.0 23.0 83 2.1 N 7 13 4 7 1012.2 1012.1 0.0
18/08:30am 25.2 29.1 22.9 87 1.6 N 7 11 4 6 1012.1 1012.0 0.0
18/08:00am 24.6 28.4 22.8 90 1.2 NNE 7 13 4 7 1012.0 1011.9 0.0
18/07:30am 23.6 26.2 21.9 90 1.1 NNE 11 15 6 8 1011.7 1011.6 0.0
18/07:00am 23.5 26.5 21.9 91 1.1 NNE 9 15 5 8 1011.6 1011.5 0.0
18/06:30am 23.6 26.7 22.2 92 0.9 NE 9 13 5 7 1011.3 1011.2 0.0
18/06:00am 23.5 26.6 22.1 92 0.9 NNE 9 15 5 8 1011.1 1011.0 0.0
18/05:30am 23.5 27.1 22.1 92 0.9 NNE 6 9 3 5 1011.0 1010.9 0.0
18/05:00am 23.6 27.2 22.4 93 0.8 NNE 7 13 4 7 1010.9 1010.8 0.0
18/04:30am 23.5 26.6 22.1 92 0.9 NNE 9 13 5 7 1010.7 1010.6 0.0
18/04:00am 23.5 26.7 22.3 93 0.8 NE 9 11 5 6 1010.8 1010.7 0.0
18/03:30am 23.6 26.8 22.4 93 0.8 NE 9 13 5 7 1010.9 1010.8 0.0
18/03:00am 23.4 26.9 22.2 93 0.8 NNE 7 13 4 7 1010.8 1010.7 0.0
18/02:30am 23.5 27.2 22.3 93 0.8 NNE 6 9 3 5 1011.2 1011.1 0.0
18/02:00am 23.3 26.6 21.9 92 0.9 NNE 7 9 4 5 1011.5 1011.4 0.0
18/01:30am 23.3 26.6 21.9 92 0.9 NNE 7 11 4 6 1011.8 1011.7 0.0
18/01:00am 23.4 26.3 21.8 91 1.1 NNE 9 13 5 7 1011.8 1011.7 0.0
18/12:30am 23.5 26.8 21.9 91 1.1 NNE 7 11 4 6 1012.0 1011.9 0.0
18/12:00am 23.6 26.6 22.0 91 1.1 NE 9 13 5 7 1012.1 1012.0 0.0
 
Date/Time
EDT
Temp
°C
App
Temp
°C
Dew
Point
°C
Rel
Hum
%
Delta-T
°C
Wind Press
QNH
hPa
Press
MSL
hPa
Rain since
9am
mm
Dir  Spd
km/h
Gust
km/h
Spd
kts
Gust
kts
17/11:30pm 23.5 26.8 21.9 91 1.1 NNE 7 13 4 7 1012.5 1012.3 0.0
17/11:00pm 23.6 27.0 22.0 91 1.1 NNE 7 11 4 6 1012.5 1012.3 0.0
17/10:30pm 23.7 26.7 22.0 90 1.1 NNE 9 15 5 8 1012.7 1012.5 0.0
17/10:00pm 23.8 26.5 22.1 90 1.1 NNE 11 17 6 9 1012.6 1012.4 0.0
17/09:30pm 23.8 26.8 21.9 89 1.3 NNE 9 17 5 9 1011.8 1011.7 0.0
17/09:00pm 23.9 26.9 22.0 89 1.3 NNE 9 15 5 8 1011.6 1011.5 0.0
17/08:30pm 24.0 26.2 21.9 88 1.4 NNE 13 20 7 11 1011.2 1011.1 0.0
17/08:00pm 24.3 26.9 22.0 87 1.5 NNE 11 20 6 11 1010.9 1010.8 0.0
17/07:30pm 24.8 27.6 22.3 86 1.7 NNE 11 19 6 10 1010.7 1010.6 0.0
17/07:00pm 25.8 28.3 22.5 82 2.2 NNE 13 20 7 11 1010.5 1010.4 0.0
17/06:30pm 26.4 29.4 22.7 80 2.5 NNE 11 20 6 11 1010.2 1010.1 0.0
17/06:00pm 27.2 30.1 23.2 79 2.7 NE 13 22 7 12 1009.8 1009.7 0.0
17/05:30pm 26.8 29.1 22.8 79 2.7 NE 15 28 8 15 1009.6 1009.5 0.0
17/05:00pm 27.4 29.9 23.8 81 2.5 NE 17 24 9 13 1009.5 1009.4 0.0
17/04:30pm 27.1 29.9 23.6 81 2.4 ENE 15 28 8 15 1009.5 1009.4 0.0
17/04:00pm 27.6 30.2 24.0 81 2.5 NE 17 24 9 13 1009.7 1009.6 0.0
17/03:30pm 27.3 29.6 23.5 80 2.6 ENE 17 26 9 14 1009.9 1009.8 0.0
17/03:00pm 27.1 29.2 23.8 82 2.3 ENE 19 28 10 15 1010.1 1010.0 0.0
17/02:30pm 27.6 30.9 23.8 80 2.6 E 13 20 7 11 1010.2 1010.1 0.0
17/02:00pm 27.3 29.9 23.3 79 2.7 E 15 20 8 11 1010.2 1010.1 0.0
17/01:30pm 27.6 30.6 23.4 78 2.9 E 13 19 7 10 1010.5 1010.4 0.0
17/01:00pm 27.5 30.6 23.5 79 2.7 ESE 13 20 7 11 1010.7 1010.6 0.0

Other formats

Comma delimited format used in spreadsheet applications
http://www.bom.gov.au/fwo/IDN60801/IDN60801.94589.axf

JavaScript Object Notation format (JSON) in row-major order
http://www.bom.gov.au/fwo/IDN60801/IDN60801.94589.json

Data quality

Most of these data are generated automatically and are frequently updated. Quality checks on data are not normally performed. It is possible for incorrect values to appear. Refer to information at About Latest Weather Observations and please check the disclaimer before using these data.